createdAt,value
2022-10-07T00:00:40.773Z,2.38
2022-10-07T00:03:13.616Z,2.24
2022-10-07T00:05:39.953Z,2.08
2022-10-07T00:08:06.301Z,2.13
2022-10-07T00:10:33.058Z,2.37
2022-10-07T00:12:59.389Z,2.29
2022-10-07T00:15:25.729Z,2.26
2022-10-07T00:17:52.187Z,2.32
2022-10-07T00:20:18.512Z,2.24
2022-10-07T00:22:44.842Z,2.17
2022-10-07T00:25:11.370Z,2.09
2022-10-07T00:27:37.705Z,2.21
2022-10-07T00:30:04.039Z,2.17
2022-10-07T00:32:33.677Z,2.08
2022-10-07T00:35:00.001Z,2.19
2022-10-07T00:37:26.331Z,2.29
2022-10-07T00:39:53.745Z,2.34
2022-10-07T00:42:20.078Z,2.13
2022-10-07T00:44:46.421Z,2.12
2022-10-07T00:47:12.932Z,2.09
2022-10-07T00:49:39.266Z,2.12
2022-10-07T00:52:05.606Z,2.14
2022-10-07T00:54:32.230Z,2.07
2022-10-07T00:56:58.577Z,2.21
2022-10-07T00:59:24.912Z,2.19
2022-10-07T01:01:51.407Z,2.14
2022-10-07T01:04:17.761Z,2.23
2022-10-07T01:06:44.110Z,2.21
2022-10-07T01:09:10.602Z,2.14
2022-10-07T01:11:36.932Z,2.25
2022-10-07T01:14:03.284Z,2.25
2022-10-07T01:16:29.839Z,2.27
2022-10-07T01:18:56.197Z,2.38
2022-10-07T01:21:22.536Z,2.33
2022-10-07T01:23:49.484Z,2.26
2022-10-07T01:26:15.828Z,2.09
2022-10-07T01:28:42.257Z,2.23
2022-10-07T01:31:08.945Z,2.14
2022-10-07T01:33:35.355Z,2.27
2022-10-07T01:36:01.695Z,2.25
2022-10-07T01:38:28.204Z,2.24
2022-10-07T01:40:54.570Z,2.11
2022-10-07T01:43:20.919Z,2.15
2022-10-07T01:45:47.579Z,2.19
2022-10-07T01:48:13.945Z,2.43
2022-10-07T01:50:40.281Z,2.29
2022-10-07T01:53:06.754Z,2.27
2022-10-07T01:55:33.106Z,2.13
2022-10-07T01:57:59.467Z,2.29
2022-10-07T02:00:27.894Z,2.23
2022-10-07T02:02:54.225Z,2.47
2022-10-07T02:05:20.598Z,2.38
2022-10-07T02:07:49.108Z,2.15
2022-10-07T02:10:15.457Z,2.02
2022-10-07T02:12:41.820Z,2.04
2022-10-07T02:15:08.327Z,2.35
2022-10-07T02:17:34.662Z,2.09
2022-10-07T02:20:01.006Z,2.38
2022-10-07T02:22:27.561Z,2.13
2022-10-07T02:24:53.936Z,2.28
2022-10-07T02:27:20.279Z,2.16
2022-10-07T02:29:46.773Z,2.15
2022-10-07T02:32:13.133Z,2.32
2022-10-07T02:34:39.471Z,2.29
2022-10-07T02:37:06.117Z,2.20
2022-10-07T02:39:32.457Z,2.22
2022-10-07T02:41:58.808Z,2.36
2022-10-07T02:44:25.290Z,2.13
2022-10-07T02:46:51.653Z,2.18
2022-10-07T02:49:18.278Z,2.22
2022-10-07T02:51:45.626Z,2.16
2022-10-07T02:54:11.962Z,2.28
2022-10-07T02:56:38.316Z,2.21
2022-10-07T02:59:05.023Z,2.24
2022-10-07T03:01:31.406Z,2.44
2022-10-07T03:03:57.816Z,2.39
2022-10-07T03:06:24.376Z,2.09
2022-10-07T03:08:50.849Z,2.33
2022-10-07T03:11:17.212Z,2.43
2022-10-07T03:13:53.024Z,2.35
2022-10-07T03:16:19.396Z,2.11
2022-10-07T03:18:45.804Z,2.23
2022-10-07T03:21:12.312Z,2.00
2022-10-07T03:23:38.665Z,2.00
2022-10-07T03:26:05.004Z,2.44
2022-10-07T03:28:32.955Z,2.19
2022-10-07T03:30:59.373Z,2.27
2022-10-07T03:33:25.757Z,2.14
2022-10-07T03:35:54.107Z,2.05
2022-10-07T03:38:20.451Z,2.21
2022-10-07T03:40:46.802Z,2.21
2022-10-07T03:43:13.340Z,2.22
2022-10-07T03:45:39.682Z,2.32
2022-10-07T03:48:06.087Z,2.18
2022-10-07T03:50:34.532Z,2.14
2022-10-07T03:53:00.859Z,2.22
2022-10-07T03:55:27.210Z,2.25
2022-10-07T03:57:59.184Z,2.12
2022-10-07T04:00:25.952Z,2.31
2022-10-07T04:02:52.333Z,2.37
2022-10-07T04:05:18.899Z,2.32
2022-10-07T04:07:45.445Z,2.33
2022-10-07T04:10:12.065Z,2.30
2022-10-07T04:12:38.606Z,2.45
2022-10-07T04:15:04.956Z,2.47
2022-10-07T04:17:31.300Z,2.49
2022-10-07T04:19:57.808Z,2.68
2022-10-07T04:22:24.159Z,2.46
2022-10-07T04:24:50.499Z,2.10
2022-10-07T04:27:39.748Z,2.33
2022-10-07T04:30:03.897Z,2.29
2022-10-07T04:32:30.454Z,2.48
2022-10-07T04:34:56.783Z,2.56
2022-10-07T04:37:23.131Z,2.38
2022-10-07T04:40:00.683Z,2.56
2022-10-07T04:42:27.431Z,2.44
2022-10-07T04:44:54.019Z,2.77
2022-10-07T04:47:20.356Z,2.61
2022-10-07T04:49:46.718Z,2.59
2022-10-07T04:52:13.227Z,2.41
2022-10-07T04:54:39.605Z,2.31
2022-10-07T04:57:05.957Z,2.46
2022-10-07T05:02:26.612Z,2.61
2022-10-07T05:04:53.001Z,2.56
2022-10-07T05:07:19.355Z,2.38
2022-10-07T05:09:49.303Z,2.49
2022-10-07T05:12:15.638Z,2.56
2022-10-07T05:14:42.001Z,2.54
2022-10-07T05:17:12.361Z,2.65
2022-10-07T05:19:38.702Z,2.55
2022-10-07T05:22:05.062Z,2.57
2022-10-07T05:24:31.561Z,2.39
2022-10-07T05:26:57.910Z,2.55
2022-10-07T05:29:24.279Z,2.32
2022-10-07T05:31:52.312Z,2.70
2022-10-07T05:34:18.820Z,2.42
2022-10-07T05:36:45.182Z,2.43
2022-10-07T05:39:12.411Z,2.55
2022-10-07T05:41:45.363Z,2.55
2022-10-07T05:44:12.531Z,2.44
2022-10-07T05:46:38.884Z,2.71
2022-10-07T05:49:05.219Z,2.69
2022-10-07T05:51:31.727Z,2.70
2022-10-07T05:53:58.068Z,2.45
2022-10-07T05:56:24.420Z,2.60
2022-10-07T05:58:50.893Z,2.67
2022-10-07T06:01:17.243Z,2.86
2022-10-07T06:03:43.621Z,2.91
2022-10-07T06:06:10.986Z,2.97
2022-10-07T06:08:37.337Z,2.98
2022-10-07T06:11:03.707Z,2.84
2022-10-07T06:13:33.442Z,3.11
2022-10-07T06:15:59.788Z,3.20
2022-10-07T06:18:26.122Z,3.27
2022-10-07T06:20:53.458Z,3.30
2022-10-07T06:23:19.845Z,2.91
2022-10-07T06:25:46.207Z,3.01
2022-10-07T06:28:14.030Z,3.03
2022-10-07T06:30:40.454Z,3.30
2022-10-07T06:33:06.816Z,3.25
2022-10-07T06:38:27.705Z,3.28
2022-10-07T06:40:54.075Z,3.52
2022-10-07T06:43:20.445Z,3.52
2022-10-07T06:45:46.965Z,3.38
2022-10-07T06:48:13.442Z,3.36
2022-10-07T06:50:39.776Z,3.31
2022-10-07T06:53:06.760Z,3.38
2022-10-07T06:55:33.121Z,3.49
2022-10-07T06:57:59.610Z,3.34
2022-10-07T07:00:26.619Z,3.45
2022-10-07T07:02:53.012Z,3.47
2022-10-07T07:05:19.402Z,3.53
2022-10-07T07:07:46.090Z,3.44
2022-10-07T07:10:12.746Z,3.58
2022-10-07T07:12:39.083Z,3.34
2022-10-07T07:15:05.612Z,3.34
2022-10-07T07:17:31.964Z,3.38
2022-10-07T07:19:58.337Z,3.33
2022-10-07T07:22:24.892Z,3.44
2022-10-07T07:24:51.248Z,3.47
2022-10-07T07:27:17.648Z,3.57
2022-10-07T07:29:48.012Z,3.64
2022-10-07T07:32:14.398Z,3.64
2022-10-07T07:34:40.834Z,3.52
2022-10-07T07:37:09.112Z,4.00
2022-10-07T07:39:35.450Z,3.59
2022-10-07T07:42:01.820Z,3.66
2022-10-07T07:44:32.572Z,3.91
2022-10-07T07:47:01.270Z,4.04
2022-10-07T07:49:31.140Z,3.99
2022-10-07T07:51:57.535Z,4.47
2022-10-07T07:54:23.897Z,3.82
2022-10-07T07:56:51.076Z,3.83
2022-10-07T07:59:17.463Z,3.59
2022-10-07T08:01:43.851Z,3.80
2022-10-07T08:04:16.702Z,3.43
2022-10-07T08:06:43.073Z,3.05
2022-10-07T08:09:09.428Z,2.99
2022-10-07T08:11:35.932Z,3.02
2022-10-07T08:14:02.304Z,3.43
2022-10-07T08:16:28.705Z,3.23
2022-10-07T08:18:56.409Z,3.57
2022-10-07T08:21:22.762Z,3.38
2022-10-07T08:23:49.144Z,3.38
2022-10-07T08:29:09.648Z,3.38
2022-10-07T08:31:36.050Z,3.35
2022-10-07T08:34:02.385Z,3.03
2022-10-07T08:36:28.864Z,3.28
2022-10-07T08:38:55.202Z,3.36
2022-10-07T08:41:21.564Z,3.38
2022-10-07T08:43:48.357Z,3.18
2022-10-07T08:46:14.810Z,3.30
2022-10-07T08:48:41.190Z,3.30
2022-10-07T08:51:09.909Z,3.19
2022-10-07T08:53:36.270Z,3.16
2022-10-07T08:56:02.621Z,2.84
2022-10-07T08:58:31.329Z,3.09
2022-10-07T09:00:57.696Z,2.89
2022-10-07T09:03:25.269Z,3.00
2022-10-07T09:05:52.049Z,2.82
2022-10-07T09:08:18.419Z,2.88
2022-10-07T09:10:44.767Z,2.91
2022-10-07T09:16:06.144Z,3.03
2022-10-07T09:18:32.519Z,3.15
2022-10-07T09:20:58.909Z,3.11
2022-10-07T09:23:25.425Z,2.68
2022-10-07T09:25:51.815Z,2.70
2022-10-07T09:28:18.194Z,2.99
2022-10-07T09:30:48.165Z,2.91
2022-10-07T09:33:14.529Z,2.87
2022-10-07T09:35:40.874Z,2.81
2022-10-07T09:38:10.806Z,2.71
2022-10-07T09:40:37.149Z,2.90
2022-10-07T09:43:03.507Z,2.86
2022-10-07T09:45:30.017Z,2.63
2022-10-07T09:47:56.345Z,2.88
2022-10-07T09:50:22.716Z,2.62
2022-10-07T09:52:49.190Z,2.57
2022-10-07T09:55:15.597Z,2.59
2022-10-07T09:57:41.975Z,2.85
2022-10-07T10:00:08.666Z,2.87
2022-10-07T10:02:35.210Z,2.87
2022-10-07T10:05:01.612Z,2.87
2022-10-07T10:07:34.983Z,2.87
2022-10-07T10:10:01.341Z,2.76
2022-10-07T10:12:27.671Z,2.91
2022-10-07T10:14:54.159Z,2.89
2022-10-07T10:17:20.526Z,3.16
2022-10-07T10:19:46.884Z,3.05
2022-10-07T10:22:14.275Z,2.95
2022-10-07T10:24:40.607Z,3.08
2022-10-07T10:27:06.936Z,3.01
2022-10-07T10:29:35.030Z,3.16
2022-10-07T10:32:01.374Z,2.99
2022-10-07T10:34:27.716Z,3.05
2022-10-07T10:36:54.201Z,3.11
2022-10-07T10:39:20.625Z,3.08
2022-10-07T10:41:46.976Z,3.12
2022-10-07T10:44:13.502Z,3.05
2022-10-07T10:46:39.940Z,2.95
2022-10-07T10:49:06.435Z,2.90
2022-10-07T10:51:32.926Z,3.40
2022-10-07T10:53:59.285Z,3.11
2022-10-07T10:56:25.636Z,2.88
2022-10-07T10:58:52.148Z,3.14
2022-10-07T11:01:18.506Z,3.00
2022-10-07T11:03:44.861Z,3.18
2022-10-07T11:06:11.614Z,2.93
2022-10-07T11:08:38.753Z,3.00
2022-10-07T11:11:05.240Z,3.21
2022-10-07T11:13:31.711Z,3.10
2022-10-07T11:15:58.073Z,3.17
2022-10-07T11:18:24.430Z,3.32
2022-10-07T11:20:50.937Z,3.20
2022-10-07T11:23:17.293Z,3.43
2022-10-07T11:25:43.655Z,3.07
2022-10-07T11:28:10.186Z,2.99
2022-10-07T11:30:36.630Z,3.11
2022-10-07T11:33:02.984Z,3.31
2022-10-07T11:35:29.483Z,3.18
2022-10-07T11:37:55.842Z,3.08
2022-10-07T11:40:24.620Z,3.04
2022-10-07T11:42:54.801Z,2.90
2022-10-07T11:45:21.158Z,2.89
2022-10-07T11:47:47.559Z,3.21
2022-10-07T11:50:15.199Z,3.18
2022-10-07T11:52:41.566Z,3.07
2022-10-07T11:55:07.972Z,3.13
2022-10-07T11:57:34.456Z,3.14
2022-10-07T12:00:00.796Z,3.41
2022-10-07T12:02:27.320Z,3.46
2022-10-07T12:05:03.538Z,3.46
2022-10-07T12:07:29.878Z,3.11
2022-10-07T12:09:56.248Z,3.01
2022-10-07T12:12:22.753Z,3.18
2022-10-07T12:14:49.125Z,3.29
2022-10-07T12:17:15.513Z,2.80
2022-10-07T12:19:46.489Z,2.99
2022-10-07T12:22:12.944Z,2.99
2022-10-07T12:24:39.274Z,3.01
2022-10-07T12:27:05.783Z,2.99
2022-10-07T12:29:32.139Z,2.90
2022-10-07T12:31:58.540Z,3.13
2022-10-07T12:34:29.370Z,2.66
2022-10-07T12:36:55.712Z,2.79
2022-10-07T12:39:22.105Z,2.94
2022-10-07T12:41:52.700Z,3.15
2022-10-07T12:44:19.066Z,2.93
2022-10-07T12:46:45.422Z,2.87
2022-10-07T12:49:18.344Z,2.61
2022-10-07T12:51:44.707Z,2.82
2022-10-07T12:54:11.076Z,2.94
2022-10-07T12:56:37.728Z,2.81
2022-10-07T12:59:04.079Z,2.95
2022-10-07T13:01:30.508Z,2.86
2022-10-07T13:03:57.370Z,2.69
2022-10-07T13:06:23.706Z,2.78
2022-10-07T13:08:50.067Z,2.70
2022-10-07T13:11:18.587Z,2.68
2022-10-07T13:13:44.937Z,2.76
2022-10-07T13:16:11.381Z,2.82
2022-10-07T13:18:44.415Z,2.69
2022-10-07T13:21:10.849Z,2.97
2022-10-07T13:23:37.230Z,2.84
2022-10-07T13:26:03.760Z,2.94
2022-10-07T13:28:30.180Z,3.00
2022-10-07T13:30:56.614Z,2.61
2022-10-07T13:33:25.660Z,2.61
2022-10-07T13:35:52.045Z,2.80
2022-10-07T13:38:18.415Z,2.73
2022-10-07T13:40:44.970Z,2.95
2022-10-07T13:43:11.324Z,2.78
2022-10-07T13:45:37.684Z,2.61
2022-10-07T13:48:06.844Z,2.86
2022-10-07T13:50:33.208Z,2.81
2022-10-07T13:52:59.627Z,2.69
2022-10-07T13:55:26.578Z,2.80
2022-10-07T13:57:52.944Z,2.63
2022-10-07T14:00:19.323Z,2.80
2022-10-07T14:02:46.276Z,2.74
2022-10-07T14:05:12.842Z,2.72
2022-10-07T14:07:39.172Z,2.73
2022-10-07T14:10:05.645Z,2.70
2022-10-07T14:12:32.030Z,2.59
2022-10-07T14:14:58.373Z,2.76
2022-10-07T14:17:24.908Z,2.75
2022-10-07T14:19:51.246Z,2.98
2022-10-07T14:22:17.605Z,2.79
2022-10-07T14:24:46.406Z,2.64
2022-10-07T14:27:12.752Z,2.89
2022-10-07T14:29:39.097Z,2.74
2022-10-07T14:32:08.317Z,2.62
2022-10-07T14:34:34.675Z,2.76
2022-10-07T14:37:01.011Z,2.81
2022-10-07T14:39:27.497Z,2.60
2022-10-07T14:41:53.850Z,2.92
2022-10-07T14:44:20.280Z,2.79
2022-10-07T14:46:46.766Z,2.69
2022-10-07T14:49:13.160Z,2.66
2022-10-07T14:51:39.526Z,2.71
2022-10-07T14:54:06.068Z,2.57
2022-10-07T14:56:32.438Z,2.72
2022-10-07T14:58:58.814Z,2.80
2022-10-07T15:01:25.302Z,2.89
2022-10-07T15:03:51.731Z,2.64
2022-10-07T15:06:18.139Z,2.65
2022-10-07T15:11:38.684Z,2.79
2022-10-07T15:14:05.063Z,2.68
2022-10-07T15:16:31.497Z,2.86
2022-10-07T15:19:05.663Z,2.82
2022-10-07T15:21:32.057Z,2.79
2022-10-07T15:23:58.407Z,3.05
2022-10-07T15:26:25.021Z,3.02
2022-10-07T15:28:51.389Z,2.79
2022-10-07T15:31:17.883Z,2.74
2022-10-07T15:33:44.413Z,3.00
2022-10-07T15:36:10.760Z,2.87
2022-10-07T15:38:37.129Z,2.90
2022-10-07T15:41:09.699Z,2.85
2022-10-07T15:43:36.065Z,2.77
2022-10-07T15:46:02.490Z,2.86
2022-10-07T15:48:29.213Z,3.14
2022-10-07T15:50:55.567Z,2.79
2022-10-07T15:53:21.920Z,2.80
2022-10-07T15:55:48.413Z,2.90
2022-10-07T15:58:14.758Z,2.83
2022-10-07T16:00:41.102Z,2.77
2022-10-07T16:03:07.659Z,2.87
2022-10-07T16:05:34.042Z,2.81
2022-10-07T16:08:00.375Z,2.77
2022-10-07T16:10:27.324Z,2.69
2022-10-07T16:12:53.678Z,2.75
2022-10-07T16:15:20.042Z,2.73
2022-10-07T16:17:46.580Z,2.97
2022-10-07T16:20:12.970Z,2.85
2022-10-07T16:22:39.344Z,2.76
2022-10-07T16:25:05.832Z,2.85
2022-10-07T16:27:32.210Z,3.00
2022-10-07T16:29:58.573Z,2.83
2022-10-07T16:32:31.829Z,2.69
2022-10-07T16:34:58.173Z,2.77
2022-10-07T16:37:24.516Z,2.73
2022-10-07T16:39:51.030Z,2.83
2022-10-07T16:42:17.379Z,2.90
2022-10-07T16:44:47.279Z,2.82
2022-10-07T16:47:16.531Z,3.18
2022-10-07T16:49:42.876Z,2.77
2022-10-07T16:52:09.206Z,2.98
2022-10-07T16:57:26.845Z,2.88
2022-10-07T16:59:53.216Z,3.06
2022-10-07T17:02:19.560Z,3.08
2022-10-07T17:04:46.067Z,2.98
2022-10-07T17:07:12.410Z,2.95
2022-10-07T17:09:38.742Z,2.77
2022-10-07T17:12:05.123Z,3.03
2022-10-07T17:14:31.477Z,2.82
2022-10-07T17:16:57.838Z,3.06
2022-10-07T17:19:24.590Z,3.05
2022-10-07T17:21:50.959Z,3.05
2022-10-07T17:24:17.321Z,3.25
2022-10-07T17:26:43.808Z,2.97
2022-10-07T17:29:10.175Z,3.22
2022-10-07T17:31:36.620Z,3.33
2022-10-07T17:34:03.033Z,3.23
2022-10-07T17:36:29.397Z,3.14
2022-10-07T17:38:55.741Z,3.35
2022-10-07T17:41:22.401Z,3.38
2022-10-07T17:43:48.758Z,3.71
2022-10-07T17:46:15.135Z,3.81
2022-10-07T17:48:41.558Z,4.03
2022-10-07T17:51:07.908Z,4.02
2022-10-07T17:53:34.244Z,3.65
2022-10-07T17:56:00.638Z,3.73
2022-10-07T17:58:26.992Z,3.53
2022-10-07T18:00:53.374Z,3.77
2022-10-07T18:03:19.754Z,3.54
2022-10-07T18:05:46.127Z,3.57
2022-10-07T18:08:12.468Z,3.42
2022-10-07T18:10:38.923Z,3.60
2022-10-07T18:13:05.260Z,3.50
2022-10-07T18:15:31.600Z,3.37
2022-10-07T18:17:58.051Z,3.43
2022-10-07T18:20:24.408Z,3.72
2022-10-07T18:22:50.751Z,3.75
2022-10-07T18:25:17.132Z,3.47
2022-10-07T18:27:43.751Z,3.42
2022-10-07T18:30:10.315Z,3.84
2022-10-07T18:32:36.719Z,3.96
2022-10-07T18:35:03.049Z,3.69
2022-10-07T18:37:29.410Z,3.86
2022-10-07T18:39:55.767Z,3.81
2022-10-07T18:42:22.090Z,3.76
2022-10-07T18:44:48.440Z,3.77
2022-10-07T18:47:14.919Z,3.58
2022-10-07T18:49:41.306Z,3.66
2022-10-07T18:52:07.656Z,3.34
2022-10-07T18:54:34.039Z,3.67
2022-10-07T18:57:00.416Z,3.42
2022-10-07T18:59:26.768Z,3.66
2022-10-07T19:01:53.301Z,3.74
2022-10-07T19:04:19.681Z,3.66
2022-10-07T19:06:46.050Z,3.62
2022-10-07T19:09:12.528Z,3.64
2022-10-07T19:11:38.872Z,3.37
2022-10-07T19:14:05.220Z,3.67
2022-10-07T19:16:31.759Z,3.59
2022-10-07T19:18:58.151Z,3.59
2022-10-07T19:21:24.479Z,3.74
2022-10-07T19:23:50.925Z,3.59
2022-10-07T19:26:21.141Z,3.52
2022-10-07T19:28:47.930Z,3.62
2022-10-07T19:31:14.437Z,4.08
2022-10-07T19:33:40.940Z,3.72
2022-10-07T19:36:07.288Z,3.65
2022-10-07T19:38:33.761Z,3.86
2022-10-07T19:41:00.114Z,3.64
2022-10-07T19:43:26.447Z,3.72
2022-10-07T19:45:52.844Z,3.76
2022-10-07T19:48:19.198Z,3.76
2022-10-07T19:50:45.574Z,3.81
2022-10-07T19:53:11.932Z,3.75
2022-10-07T19:55:38.305Z,3.73
2022-10-07T19:58:04.704Z,3.57
2022-10-07T20:00:31.087Z,3.50
2022-10-07T20:02:57.438Z,3.50
2022-10-07T20:05:23.770Z,3.29
2022-10-07T20:07:50.243Z,3.54
2022-10-07T20:10:16.587Z,3.60
2022-10-07T20:12:42.972Z,3.53
2022-10-07T20:15:09.461Z,3.74
2022-10-07T20:17:35.791Z,3.73
2022-10-07T20:20:02.148Z,3.77
2022-10-07T20:22:28.526Z,3.52
2022-10-07T20:24:54.876Z,3.40
2022-10-07T20:27:21.210Z,3.50
2022-10-07T20:29:47.716Z,3.53
2022-10-07T20:32:14.115Z,3.50
2022-10-07T20:34:40.530Z,3.52
2022-10-07T20:37:06.904Z,3.61
2022-10-07T20:39:33.251Z,3.38
2022-10-07T20:41:59.599Z,3.45
2022-10-07T20:44:25.964Z,3.59
2022-10-07T20:46:52.322Z,3.45
2022-10-07T20:49:18.689Z,3.50
2022-10-07T20:51:45.061Z,3.55
2022-10-07T20:54:11.406Z,3.60
2022-10-07T20:56:37.793Z,3.69
2022-10-07T20:59:04.250Z,3.60
2022-10-07T21:01:30.671Z,3.96
2022-10-07T21:03:57.067Z,3.81
2022-10-07T21:06:23.454Z,3.91
2022-10-07T21:08:49.808Z,3.17
2022-10-07T21:11:16.146Z,3.42
2022-10-07T21:13:42.571Z,3.27
2022-10-07T21:16:08.899Z,3.33
2022-10-07T21:18:35.228Z,3.63
2022-10-07T21:21:01.613Z,3.72
2022-10-07T21:23:28.000Z,3.47
2022-10-07T21:25:54.362Z,3.66
2022-10-07T21:28:20.777Z,3.49
2022-10-07T21:30:47.194Z,3.42
2022-10-07T21:33:13.570Z,3.77
2022-10-07T21:35:39.923Z,3.49
2022-10-07T21:38:06.249Z,3.58
2022-10-07T21:40:32.597Z,3.41
2022-10-07T21:42:59.052Z,3.53
2022-10-07T21:45:25.416Z,3.37
2022-10-07T21:47:51.759Z,3.38
2022-10-07T21:50:18.127Z,3.36
2022-10-07T21:52:44.888Z,3.33
2022-10-07T21:55:11.352Z,3.38
2022-10-07T21:57:37.698Z,3.54
2022-10-07T22:00:04.046Z,3.68
2022-10-07T22:02:30.489Z,3.60
2022-10-07T22:04:56.912Z,3.58
2022-10-07T22:07:23.260Z,3.66
2022-10-07T22:09:49.705Z,3.50
2022-10-07T22:12:16.075Z,3.42
2022-10-07T22:14:42.436Z,3.35
2022-10-07T22:17:08.766Z,3.29
2022-10-07T22:19:37.491Z,3.32
2022-10-07T22:22:03.874Z,3.43
2022-10-07T22:24:30.207Z,3.67
2022-10-07T22:26:56.580Z,3.57
2022-10-07T22:29:22.946Z,3.50
2022-10-07T22:31:49.301Z,3.70
2022-10-07T22:34:15.741Z,3.53
2022-10-07T22:36:42.082Z,3.34
2022-10-07T22:39:08.441Z,3.49
2022-10-07T22:41:34.880Z,3.51
2022-10-07T22:44:01.264Z,3.50
2022-10-07T22:46:27.679Z,3.26
2022-10-07T22:48:54.210Z,3.44
2022-10-07T22:51:20.565Z,3.31
2022-10-07T22:53:48.044Z,3.20
2022-10-07T22:56:14.414Z,3.03
2022-10-07T22:58:40.774Z,3.25
2022-10-07T23:01:07.143Z,3.36
2022-10-07T23:03:33.699Z,3.15
2022-10-07T23:06:00.114Z,3.50
2022-10-07T23:08:26.459Z,3.43
2022-10-07T23:10:52.840Z,3.43
2022-10-07T23:13:19.196Z,3.44
2022-10-07T23:15:45.550Z,3.44
2022-10-07T23:18:11.985Z,3.53
2022-10-07T23:20:38.332Z,3.64
2022-10-07T23:23:04.659Z,3.64
2022-10-07T23:25:31.137Z,3.72
2022-10-07T23:27:57.497Z,3.45
2022-10-07T23:30:23.846Z,3.28
2022-10-07T23:32:50.244Z,3.38
2022-10-07T23:35:16.597Z,3.43
2022-10-07T23:37:42.961Z,3.31
2022-10-07T23:40:09.333Z,3.41
2022-10-07T23:42:35.781Z,3.43
2022-10-07T23:45:02.185Z,3.48
2022-10-07T23:47:28.562Z,3.42
2022-10-07T23:49:54.937Z,3.31
2022-10-07T23:52:21.286Z,3.36
2022-10-07T23:54:47.667Z,3.21
2022-10-07T23:57:14.006Z,3.16
2022-10-07T23:59:41.593Z,3.10
